createdAt,value
2022-10-30T00:00:57.245Z,74.70
2022-10-30T00:03:24.064Z,74.80
2022-10-30T00:05:51.945Z,74.80
2022-10-30T00:08:21.086Z,74.90
2022-10-30T00:10:50.388Z,75.60
2022-10-30T00:13:18.621Z,74.70
2022-10-30T00:15:53.183Z,74.80
2022-10-30T00:18:20.718Z,74.80
2022-10-30T00:20:50.973Z,74.70
2022-10-30T00:23:17.896Z,74.70
2022-10-30T00:25:44.630Z,74.60
2022-10-30T00:28:11.656Z,74.60
2022-10-30T00:30:41.160Z,74.50
2022-10-30T00:33:08.093Z,74.60
2022-10-30T00:35:37.685Z,74.60
2022-10-30T00:38:04.670Z,74.70
2022-10-30T00:40:31.421Z,74.60
2022-10-30T00:42:58.218Z,74.60
2022-10-30T00:45:25.420Z,74.70
2022-10-30T00:48:03.088Z,74.60
2022-10-30T00:50:36.602Z,74.80
2022-10-30T00:53:17.618Z,74.80
2022-10-30T00:55:51.508Z,74.80
2022-10-30T00:58:25.034Z,74.70
2022-10-30T01:00:54.856Z,74.80
2022-10-30T01:03:23.046Z,74.80
2022-10-30T01:05:54.980Z,74.80
2022-10-30T01:08:21.797Z,75.00
2022-10-30T01:10:49.366Z,74.80
2022-10-30T01:13:19.475Z,74.90
2022-10-30T01:15:53.986Z,74.80
2022-10-30T01:18:40.829Z,74.70
2022-10-30T01:21:41.758Z,74.60
2022-10-30T01:24:24.204Z,74.60
2022-10-30T01:27:15.345Z,74.60
2022-10-30T01:30:05.114Z,74.70
2022-10-30T01:33:01.436Z,74.60
2022-10-30T01:35:43.107Z,74.70
2022-10-30T01:38:44.278Z,74.70
2022-10-30T01:41:11.089Z,74.80
2022-10-30T01:43:39.262Z,74.80
2022-10-30T01:46:41.884Z,75.00
2022-10-30T01:49:27.304Z,75.00
2022-10-30T01:52:18.088Z,75.00
2022-10-30T01:55:09.452Z,75.10
2022-10-30T01:57:48.093Z,75.10
2022-10-30T02:00:16.696Z,75.10
2022-10-30T02:02:44.287Z,75.10
2022-10-30T02:05:21.771Z,75.10
2022-10-30T02:07:48.631Z,75.20
2022-10-30T02:10:15.573Z,75.10
2022-10-30T02:12:42.467Z,75.10
2022-10-30T02:15:09.896Z,75.00
2022-10-30T02:17:37.521Z,75.10
2022-10-30T02:20:04.791Z,75.10
2022-10-30T02:22:31.620Z,75.10
2022-10-30T02:24:58.477Z,75.00
2022-10-30T02:27:25.266Z,75.10
2022-10-30T02:29:52.040Z,75.10
2022-10-30T02:32:18.797Z,75.10
2022-10-30T02:34:45.565Z,75.30
2022-10-30T02:37:14.575Z,75.20
2022-10-30T02:39:41.336Z,75.20
2022-10-30T02:42:08.148Z,75.20
2022-10-30T02:44:35.021Z,75.20
2022-10-30T02:47:01.871Z,75.20
2022-10-30T02:49:28.618Z,75.20
2022-10-30T02:51:55.376Z,75.20
2022-10-30T02:54:22.142Z,75.10
2022-10-30T02:56:49.014Z,75.20
2022-10-30T02:59:15.835Z,75.30
2022-10-30T03:01:42.761Z,75.30
2022-10-30T03:04:09.863Z,75.30
2022-10-30T03:06:36.723Z,75.40
2022-10-30T03:09:03.712Z,75.30
2022-10-30T03:11:30.419Z,75.30
2022-10-30T03:13:57.185Z,75.40
2022-10-30T03:16:25.918Z,75.40
2022-10-30T03:18:53.798Z,75.60
2022-10-30T03:21:22.290Z,75.50
2022-10-30T03:23:50.565Z,75.50
2022-10-30T03:26:18.258Z,75.40
2022-10-30T03:28:45.315Z,75.30
2022-10-30T03:31:15.164Z,75.40
2022-10-30T03:33:42.004Z,76.30
2022-10-30T03:36:10.645Z,75.40
2022-10-30T03:38:38.094Z,75.60
2022-10-30T03:41:06.153Z,75.60
2022-10-30T03:43:33.013Z,75.60
2022-10-30T03:45:59.925Z,75.70
2022-10-30T03:48:28.399Z,75.80
2022-10-30T03:50:59.652Z,75.80
2022-10-30T03:53:28.670Z,75.80
2022-10-30T03:56:00.989Z,75.80
2022-10-30T03:58:28.801Z,75.80
2022-10-30T04:01:01.516Z,75.70
2022-10-30T04:03:28.533Z,75.80
2022-10-30T04:05:55.293Z,75.60
2022-10-30T04:08:22.113Z,75.60
2022-10-30T04:10:49.095Z,75.60
2022-10-30T04:13:17.775Z,75.70
2022-10-30T04:15:44.698Z,75.70
2022-10-30T04:18:13.736Z,75.70
2022-10-30T04:20:40.610Z,75.70
2022-10-30T04:23:10.421Z,75.70
2022-10-30T04:25:37.355Z,75.70
2022-10-30T04:28:04.631Z,75.60
2022-10-30T04:30:36.793Z,75.50
2022-10-30T04:33:06.497Z,76.30
2022-10-30T04:35:36.961Z,75.50
2022-10-30T04:38:09.129Z,75.60
2022-10-30T04:40:38.139Z,75.60
2022-10-30T04:43:06.210Z,75.60
2022-10-30T04:45:33.090Z,75.60
2022-10-30T04:48:04.045Z,75.50
2022-10-30T04:50:32.505Z,75.60
2022-10-30T04:53:19.799Z,75.60
2022-10-30T04:55:46.838Z,75.60
2022-10-30T04:58:14.023Z,75.60
2022-10-30T05:00:41.258Z,75.50
2022-10-30T05:03:09.184Z,75.40
2022-10-30T05:05:35.957Z,75.40
2022-10-30T05:08:03.078Z,75.40
2022-10-30T05:10:30.076Z,75.40
2022-10-30T05:12:57.029Z,75.50
2022-10-30T05:15:24.001Z,75.60
2022-10-30T05:17:53.982Z,75.70
2022-10-30T05:20:21.148Z,75.70
2022-10-30T05:22:58.441Z,75.90
2022-10-30T05:25:25.909Z,75.90
2022-10-30T05:28:01.867Z,75.90
2022-10-30T05:30:30.800Z,76.00
2022-10-30T05:33:06.069Z,75.90
2022-10-30T05:35:34.394Z,75.90
2022-10-30T05:38:03.324Z,75.90
2022-10-30T05:40:30.273Z,75.60
2022-10-30T05:42:57.511Z,75.60
2022-10-30T05:45:24.626Z,75.50
2022-10-30T05:48:00.251Z,75.40
2022-10-30T05:50:28.615Z,75.50
2022-10-30T05:53:00.256Z,75.50
2022-10-30T05:55:30.754Z,75.40
2022-10-30T05:57:58.996Z,75.50
2022-10-30T06:00:27.158Z,75.60
2022-10-30T06:03:03.653Z,75.70
2022-10-30T06:05:32.544Z,75.60
2022-10-30T06:07:59.934Z,75.70
2022-10-30T06:10:27.491Z,75.70
2022-10-30T06:13:02.527Z,75.60
2022-10-30T06:15:30.695Z,75.70
2022-10-30T06:17:58.477Z,75.70
2022-10-30T06:20:28.475Z,75.70
2022-10-30T06:23:00.775Z,75.70
2022-10-30T06:25:29.517Z,75.70
2022-10-30T06:27:57.002Z,75.70
2022-10-30T06:30:24.621Z,75.70
2022-10-30T06:33:00.532Z,75.80
2022-10-30T06:35:28.597Z,75.80
2022-10-30T06:37:56.431Z,75.90
2022-10-30T06:40:23.969Z,75.90
2022-10-30T06:42:52.341Z,76.00
2022-10-30T06:45:20.424Z,76.00
2022-10-30T06:47:48.074Z,76.10
2022-10-30T06:50:18.951Z,76.00
2022-10-30T06:52:45.956Z,76.10
2022-10-30T06:55:12.852Z,76.10
2022-10-30T06:57:39.870Z,76.10
2022-10-30T07:00:08.050Z,76.10
2022-10-30T07:02:34.906Z,76.30
2022-10-30T07:05:01.766Z,76.10
2022-10-30T07:07:29.334Z,76.20
2022-10-30T07:09:56.352Z,76.30
2022-10-30T07:12:23.202Z,76.30
2022-10-30T07:14:50.171Z,76.20
2022-10-30T07:17:16.931Z,76.30
2022-10-30T07:19:43.773Z,76.40
2022-10-30T07:22:10.578Z,76.30
2022-10-30T07:24:37.340Z,76.30
2022-10-30T07:27:04.441Z,76.30
2022-10-30T07:29:31.164Z,76.40
2022-10-30T07:32:02.712Z,76.50
2022-10-30T07:34:30.468Z,76.50
2022-10-30T07:36:57.562Z,76.60
2022-10-30T07:39:24.378Z,76.70
2022-10-30T07:41:51.106Z,76.70
2022-10-30T07:44:18.047Z,76.70
2022-10-30T07:46:44.859Z,76.80
2022-10-30T07:49:11.750Z,77.00
2022-10-30T07:51:38.509Z,77.10
2022-10-30T07:54:05.312Z,77.20
2022-10-30T07:56:32.063Z,77.30
2022-10-30T07:58:58.872Z,77.50
2022-10-30T08:01:25.905Z,77.50
2022-10-30T08:03:52.783Z,77.60
2022-10-30T08:06:22.893Z,77.70
2022-10-30T08:08:53.204Z,77.70
2022-10-30T08:11:19.930Z,77.80
2022-10-30T08:13:46.742Z,77.80
2022-10-30T08:16:13.579Z,77.70
2022-10-30T08:18:42.437Z,77.60
2022-10-30T08:21:09.914Z,77.50
2022-10-30T08:23:37.094Z,77.60
2022-10-30T08:26:05.392Z,77.60
2022-10-30T08:28:33.312Z,77.70
2022-10-30T08:31:01.261Z,77.80
2022-10-30T08:33:28.412Z,77.80
2022-10-30T08:35:57.729Z,77.90
2022-10-30T08:38:25.627Z,78.00
2022-10-30T08:40:52.787Z,78.00
2022-10-30T08:43:20.736Z,77.90
2022-10-30T08:45:48.015Z,78.00
2022-10-30T08:48:17.753Z,77.90
2022-10-30T08:50:44.930Z,77.90
2022-10-30T08:53:14.284Z,77.90
2022-10-30T08:55:41.693Z,77.90
2022-10-30T08:58:08.518Z,77.90
2022-10-30T09:00:35.700Z,77.90
2022-10-30T09:03:03.222Z,77.90
2022-10-30T09:05:30.606Z,77.90
2022-10-30T09:08:02.322Z,77.90
2022-10-30T09:10:30.671Z,77.90
2022-10-30T09:12:59.110Z,77.80
2022-10-30T09:15:26.672Z,77.90
2022-10-30T09:18:02.594Z,77.80
2022-10-30T09:20:30.865Z,77.80
2022-10-30T09:22:58.192Z,78.50
2022-10-30T09:25:25.311Z,77.70
2022-10-30T09:27:52.085Z,77.90
2022-10-30T09:30:18.901Z,77.80
2022-10-30T09:32:46.676Z,77.90
2022-10-30T09:35:14.934Z,77.90
2022-10-30T09:37:41.968Z,77.80
2022-10-30T09:40:12.966Z,77.80
2022-10-30T09:42:45.688Z,77.70
2022-10-30T09:45:50.331Z,77.60
2022-10-30T09:48:26.146Z,77.50
2022-10-30T09:51:27.532Z,77.60
2022-10-30T09:54:04.387Z,77.60
2022-10-30T09:56:39.827Z,77.50
2022-10-30T09:59:32.719Z,77.70
2022-10-30T10:02:11.543Z,77.70
2022-10-30T10:04:52.542Z,77.60
2022-10-30T10:07:38.864Z,77.50
2022-10-30T10:10:13.520Z,77.40
2022-10-30T10:12:48.160Z,77.40
2022-10-30T10:15:31.568Z,77.50
2022-10-30T10:18:01.635Z,77.50
2022-10-30T10:20:38.566Z,77.60
2022-10-30T10:23:17.310Z,77.40
2022-10-30T10:25:52.366Z,77.50
2022-10-30T10:28:38.841Z,77.80
2022-10-30T10:31:19.139Z,77.40
2022-10-30T10:34:15.358Z,77.50
2022-10-30T10:36:58.008Z,77.50
2022-10-30T10:39:44.950Z,77.30
2022-10-30T10:42:36.674Z,77.30
2022-10-30T10:45:33.394Z,77.40
2022-10-30T10:48:21.959Z,77.40
2022-10-30T10:51:10.505Z,77.30
2022-10-30T10:54:00.894Z,77.40
2022-10-30T10:56:49.004Z,77.40
2022-10-30T10:59:23.177Z,77.30
2022-10-30T11:02:10.014Z,77.20
2022-10-30T11:04:40.817Z,77.10
2022-10-30T11:07:22.693Z,77.00
2022-10-30T11:09:57.454Z,77.10
2022-10-30T11:12:37.328Z,76.80
2022-10-30T11:15:26.296Z,76.40
2022-10-30T11:18:03.673Z,76.60
2022-10-30T11:20:42.330Z,76.70
2022-10-30T11:23:30.984Z,76.80
2022-10-30T11:25:57.841Z,76.60
2022-10-30T11:28:56.733Z,76.60
2022-10-30T11:31:28.263Z,76.30
2022-10-30T11:33:55.355Z,76.00
2022-10-30T11:36:25.074Z,75.70
2022-10-30T11:38:52.792Z,75.60
2022-10-30T11:41:20.362Z,75.30
2022-10-30T11:43:49.010Z,75.30
2022-10-30T11:46:23.096Z,75.00
2022-10-30T11:48:54.852Z,75.30
2022-10-30T11:51:39.234Z,74.50
2022-10-30T11:54:07.500Z,74.30
2022-10-30T11:56:35.563Z,74.20
2022-10-30T11:59:04.910Z,73.90
2022-10-30T12:01:36.156Z,74.00
2022-10-30T12:04:23.297Z,74.20
2022-10-30T12:07:10.656Z,74.60
2022-10-30T12:09:45.786Z,74.80
2022-10-30T12:12:23.691Z,74.80
2022-10-30T12:14:51.760Z,74.80
2022-10-30T12:17:19.744Z,74.70
2022-10-30T12:19:50.302Z,74.70
2022-10-30T12:22:35.027Z,75.00
2022-10-30T12:25:15.509Z,75.10
2022-10-30T12:27:42.330Z,75.30
2022-10-30T12:30:19.593Z,75.40
2022-10-30T12:32:57.457Z,75.40
2022-10-30T12:35:38.008Z,75.00
2022-10-30T12:38:12.869Z,74.90
2022-10-30T12:40:46.836Z,74.80
2022-10-30T12:43:36.653Z,74.60
2022-10-30T12:46:30.952Z,74.40
2022-10-30T12:49:11.396Z,74.60
2022-10-30T12:51:52.757Z,74.70
2022-10-30T12:54:25.452Z,75.00
2022-10-30T12:57:05.315Z,75.00
2022-10-30T12:59:40.967Z,75.00
2022-10-30T13:02:10.615Z,74.30
2022-10-30T13:04:41.828Z,73.90
2022-10-30T13:07:20.034Z,72.90
2022-10-30T13:10:02.141Z,72.40
2022-10-30T13:12:36.253Z,72.10
2022-10-30T13:15:27.916Z,71.90
2022-10-30T13:17:58.644Z,72.30
2022-10-30T13:20:30.230Z,71.90
2022-10-30T13:23:02.637Z,71.80
2022-10-30T13:26:07.149Z,71.50
2022-10-30T13:28:49.461Z,70.60
2022-10-30T13:31:47.642Z,71.10
2022-10-30T13:34:36.105Z,70.30
2022-10-30T13:37:25.511Z,70.10
2022-10-30T13:40:14.743Z,70.60
2022-10-30T13:42:56.138Z,71.10
2022-10-30T13:45:22.858Z,71.00
2022-10-30T13:48:08.432Z,70.90
2022-10-30T13:50:59.761Z,70.80
2022-10-30T13:53:29.912Z,70.70
2022-10-30T13:55:57.418Z,70.30
2022-10-30T13:59:00.169Z,70.30
2022-10-30T14:01:51.547Z,69.80
2022-10-30T14:04:21.504Z,69.50
2022-10-30T14:06:54.279Z,70.10
2022-10-30T14:09:46.289Z,70.00
2022-10-30T14:12:43.970Z,69.50
2022-10-30T14:15:27.702Z,69.30
2022-10-30T14:18:12.849Z,69.60
2022-10-30T14:20:50.447Z,69.30
2022-10-30T14:23:20.996Z,69.70
2022-10-30T14:26:05.653Z,69.70
2022-10-30T14:28:35.398Z,69.80
2022-10-30T14:31:08.842Z,69.90
2022-10-30T14:33:54.161Z,69.90
2022-10-30T14:36:25.165Z,69.60
2022-10-30T14:38:53.832Z,69.80
2022-10-30T14:41:48.779Z,69.90
2022-10-30T14:44:19.989Z,70.00
2022-10-30T14:46:54.500Z,69.90
2022-10-30T14:49:51.019Z,69.90
2022-10-30T14:52:23.605Z,70.00
2022-10-30T14:55:28.976Z,70.30
2022-10-30T14:58:02.166Z,70.50
2022-10-30T15:00:29.455Z,70.60
2022-10-30T15:02:58.527Z,70.90
2022-10-30T15:05:28.148Z,71.20
2022-10-30T15:08:12.013Z,71.50
2022-10-30T15:11:04.781Z,71.70
2022-10-30T15:13:31.562Z,72.10
2022-10-30T15:16:05.485Z,72.20
2022-10-30T15:18:35.687Z,72.50
2022-10-30T15:21:08.165Z,72.60
2022-10-30T15:23:37.211Z,72.80
2022-10-30T15:26:10.075Z,73.10
2022-10-30T15:28:38.785Z,73.30
2022-10-30T15:31:08.174Z,73.60
2022-10-30T15:33:37.825Z,73.60
2022-10-30T15:36:05.600Z,73.70
2022-10-30T15:38:32.402Z,73.70
2022-10-30T15:41:02.921Z,73.90
2022-10-30T15:43:42.123Z,74.00
2022-10-30T15:46:14.777Z,74.00
2022-10-30T15:48:47.274Z,74.00
2022-10-30T15:51:24.102Z,74.00
2022-10-30T15:53:57.196Z,74.20
2022-10-30T15:56:26.611Z,74.20
2022-10-30T15:59:00.760Z,74.40
2022-10-30T16:01:44.335Z,74.50
2022-10-30T16:04:15.316Z,74.50
2022-10-30T16:06:55.669Z,74.50
2022-10-30T16:09:24.232Z,74.60
2022-10-30T16:11:52.950Z,74.70
2022-10-30T16:14:25.550Z,74.70
2022-10-30T16:16:52.904Z,74.70
2022-10-30T16:19:30.487Z,74.70
2022-10-30T16:21:59.017Z,74.80
2022-10-30T16:24:34.536Z,74.90
2022-10-30T16:27:14.670Z,75.00
2022-10-30T16:29:42.630Z,75.00
2022-10-30T16:32:14.757Z,75.10
2022-10-30T16:34:42.582Z,75.10
2022-10-30T16:37:36.639Z,75.10
2022-10-30T16:40:12.295Z,75.40
2022-10-30T16:42:39.849Z,75.30
2022-10-30T16:45:12.619Z,75.40
2022-10-30T16:47:44.387Z,75.50
2022-10-30T16:50:16.674Z,75.60
2022-10-30T16:52:44.233Z,75.70
2022-10-30T16:55:23.544Z,75.60
2022-10-30T16:57:55.739Z,75.70
2022-10-30T17:00:27.125Z,75.80
2022-10-30T17:02:56.406Z,75.90
2022-10-30T17:05:25.574Z,76.00
2022-10-30T17:07:57.191Z,75.90
2022-10-30T17:10:45.328Z,76.10
2022-10-30T17:13:38.149Z,76.30
2022-10-30T17:16:25.719Z,76.20
2022-10-30T17:18:58.371Z,76.30
2022-10-30T17:21:42.051Z,76.40
2022-10-30T17:24:37.649Z,76.40
2022-10-30T17:27:07.151Z,76.50
2022-10-30T17:29:36.751Z,76.50
2022-10-30T17:32:16.386Z,76.60
2022-10-30T17:34:43.218Z,76.70
2022-10-30T17:37:09.983Z,76.60
2022-10-30T17:39:36.769Z,76.70
2022-10-30T17:42:04.641Z,76.80
2022-10-30T17:44:34.777Z,77.00
2022-10-30T17:47:07.855Z,77.00
2022-10-30T17:49:34.759Z,77.00
2022-10-30T17:52:02.416Z,77.00
2022-10-30T17:54:29.331Z,77.00
2022-10-30T17:56:57.690Z,77.00
2022-10-30T17:59:24.472Z,77.00
2022-10-30T18:01:51.342Z,77.00
2022-10-30T18:04:20.577Z,77.00
2022-10-30T18:06:48.773Z,77.10
2022-10-30T18:09:15.941Z,77.00
2022-10-30T18:11:42.707Z,77.00
2022-10-30T18:14:11.213Z,76.90
2022-10-30T18:16:38.644Z,76.90
2022-10-30T18:19:10.573Z,77.00
2022-10-30T18:21:37.753Z,77.10
2022-10-30T18:24:11.248Z,77.10
2022-10-30T18:26:40.713Z,77.10
2022-10-30T18:29:08.638Z,77.10
2022-10-30T18:31:36.269Z,77.20
2022-10-30T18:34:03.225Z,77.30
2022-10-30T18:36:30.893Z,77.20
2022-10-30T18:38:58.296Z,77.30
2022-10-30T18:41:32.839Z,77.40
2022-10-30T18:43:59.977Z,77.50
2022-10-30T18:46:28.196Z,77.50
2022-10-30T18:48:55.059Z,77.60
2022-10-30T18:51:26.601Z,77.60
2022-10-30T18:53:53.914Z,77.70
2022-10-30T18:56:22.827Z,77.70
2022-10-30T18:58:53.536Z,78.00
2022-10-30T19:01:24.027Z,78.10
2022-10-30T19:03:50.935Z,78.10
2022-10-30T19:06:23.560Z,78.20
2022-10-30T19:08:50.384Z,78.30
2022-10-30T19:11:24.077Z,78.20
2022-10-30T19:13:52.744Z,78.20
2022-10-30T19:16:20.164Z,78.10
2022-10-30T19:18:48.509Z,78.10
2022-10-30T19:21:21.912Z,78.00
2022-10-30T19:23:49.226Z,78.00
2022-10-30T19:26:17.539Z,77.80
2022-10-30T19:28:45.571Z,77.90
2022-10-30T19:31:17.605Z,77.90
2022-10-30T19:33:45.041Z,77.80
2022-10-30T19:36:31.270Z,77.50
2022-10-30T19:38:58.070Z,77.40
2022-10-30T19:41:25.201Z,77.40
2022-10-30T19:43:53.140Z,77.30
2022-10-30T19:46:21.222Z,77.60
2022-10-30T19:48:57.218Z,77.60
2022-10-30T19:51:25.905Z,77.50
2022-10-30T19:53:53.835Z,77.50
2022-10-30T19:56:21.055Z,77.30
2022-10-30T19:58:47.894Z,77.30
2022-10-30T20:01:15.035Z,77.30
2022-10-30T20:03:42.115Z,77.40
2022-10-30T20:06:12.455Z,77.30
2022-10-30T20:08:39.527Z,77.50
2022-10-30T20:11:06.618Z,77.30
2022-10-30T20:13:33.900Z,77.40
2022-10-30T20:16:04.785Z,77.40
2022-10-30T20:18:34.189Z,77.50
2022-10-30T20:21:04.218Z,77.60
2022-10-30T20:23:31.319Z,77.90
2022-10-30T20:26:11.290Z,78.00
2022-10-30T20:28:41.074Z,78.10
2022-10-30T20:31:10.661Z,78.10
2022-10-30T20:33:37.620Z,78.10
2022-10-30T20:36:04.896Z,77.90
2022-10-30T20:38:33.942Z,77.80
2022-10-30T20:41:03.257Z,77.90
2022-10-30T20:43:38.520Z,78.10
2022-10-30T20:46:06.958Z,78.20
2022-10-30T20:48:33.810Z,78.30
2022-10-30T20:51:01.628Z,78.50
2022-10-30T20:53:29.785Z,78.50
2022-10-30T20:55:57.064Z,78.60
2022-10-30T20:58:24.816Z,78.50
2022-10-30T21:00:55.262Z,78.50
2022-10-30T21:03:22.171Z,78.50
2022-10-30T21:05:58.718Z,78.40
2022-10-30T21:08:27.224Z,78.40
2022-10-30T21:11:02.128Z,78.40
2022-10-30T21:13:29.401Z,78.40
2022-10-30T21:16:01.482Z,78.20
2022-10-30T21:18:28.450Z,78.10
2022-10-30T21:20:59.721Z,78.10
2022-10-30T21:23:26.532Z,78.10
2022-10-30T21:26:07.360Z,78.10
2022-10-30T21:28:34.359Z,78.20
2022-10-30T21:31:06.906Z,78.00
2022-10-30T21:33:35.268Z,78.10
2022-10-30T21:36:14.142Z,78.00
2022-10-30T21:38:42.616Z,78.00
2022-10-30T21:41:18.043Z,78.10
2022-10-30T21:43:50.861Z,78.00
2022-10-30T21:46:18.059Z,77.80
2022-10-30T21:48:44.824Z,77.70
2022-10-30T21:51:13.238Z,77.60
2022-10-30T21:53:40.410Z,77.70
2022-10-30T21:56:09.829Z,77.80
2022-10-30T21:58:37.098Z,77.70
2022-10-30T22:01:05.316Z,77.50
2022-10-30T22:03:33.239Z,77.60
2022-10-30T22:06:06.045Z,77.60
2022-10-30T22:08:32.916Z,77.50
2022-10-30T22:11:04.976Z,77.40
2022-10-30T22:13:31.729Z,77.50
2022-10-30T22:15:58.686Z,77.40
2022-10-30T22:18:25.663Z,77.50
2022-10-30T22:20:59.118Z,77.50
2022-10-30T22:23:26.141Z,77.50
2022-10-30T22:26:02.335Z,77.50
2022-10-30T22:28:31.223Z,77.60
2022-10-30T22:31:07.039Z,77.60
2022-10-30T22:33:33.964Z,77.80
2022-10-30T22:36:07.038Z,77.80
2022-10-30T22:38:34.866Z,78.60
2022-10-30T22:41:12.586Z,77.80
2022-10-30T22:43:40.210Z,77.90
2022-10-30T22:46:07.110Z,77.80
2022-10-30T22:48:34.088Z,77.80
2022-10-30T22:51:03.852Z,77.80
2022-10-30T22:53:31.667Z,77.80
2022-10-30T22:55:58.515Z,77.80
2022-10-30T22:58:30.156Z,77.80
2022-10-30T23:01:15.375Z,77.90
2022-10-30T23:03:42.948Z,77.90
2022-10-30T23:06:10.698Z,77.90
2022-10-30T23:08:37.958Z,77.90
2022-10-30T23:11:05.790Z,77.90
2022-10-30T23:13:34.377Z,77.90
2022-10-30T23:16:02.973Z,77.90
2022-10-30T23:18:30.376Z,78.00
2022-10-30T23:21:02.269Z,78.00
2022-10-30T23:23:29.197Z,78.00
2022-10-30T23:26:01.195Z,77.90
2022-10-30T23:28:27.963Z,78.00
2022-10-30T23:30:54.715Z,78.00
2022-10-30T23:33:21.475Z,78.10
2022-10-30T23:35:48.282Z,78.50
2022-10-30T23:38:15.077Z,78.20
2022-10-30T23:40:41.819Z,78.10
2022-10-30T23:43:08.656Z,78.10
2022-10-30T23:45:35.565Z,78.10
2022-10-30T23:48:02.795Z,78.10
2022-10-30T23:50:29.736Z,78.00
2022-10-30T23:52:56.451Z,78.00
2022-10-30T23:55:25.300Z,78.00
2022-10-30T23:57:52.083Z,78.10
